sensor_id;sensor_type;location;lat;lon;timestamp;temperature;humidity
17599;DHT22;8918;52.092;5.232;2023-02-12T00:00:37;8.10;99.90
17599;DHT22;8918;52.092;5.232;2023-02-12T00:03:03;8.10;99.90
17599;DHT22;8918;52.092;5.232;2023-02-12T00:05:29;8.10;99.90
17599;DHT22;8918;52.092;5.232;2023-02-12T00:07:55;8.10;99.90
17599;DHT22;8918;52.092;5.232;2023-02-12T00:10:21;8.10;99.90
17599;DHT22;8918;52.092;5.232;2023-02-12T00:12:46;8.10;99.90
17599;DHT22;8918;52.092;5.232;2023-02-12T00:15:12;8.10;99.90
17599;DHT22;8918;52.092;5.232;2023-02-12T00:17:38;8.10;99.90
17599;DHT22;8918;52.092;5.232;2023-02-12T00:20:04;8.00;99.90
17599;DHT22;8918;52.092;5.232;2023-02-12T00:22:29;8.00;99.90
17599;DHT22;8918;52.092;5.232;2023-02-12T00:24:55;8.00;99.90
17599;DHT22;8918;52.092;5.232;2023-02-12T00:27:22;8.00;99.90
17599;DHT22;8918;52.092;5.232;2023-02-12T00:29:47;8.00;99.90
17599;DHT22;8918;52.092;5.232;2023-02-12T00:32:13;8.00;99.90
17599;DHT22;8918;52.092;5.232;2023-02-12T00:34:39;8.00;99.90
17599;DHT22;8918;52.092;5.232;2023-02-12T00:37:05;8.00;99.90
17599;DHT22;8918;52.092;5.232;2023-02-12T00:39:31;8.00;99.90
17599;DHT22;8918;52.092;5.232;2023-02-12T00:41:56;8.00;99.90
17599;DHT22;8918;52.092;5.232;2023-02-12T00:44:22;8.00;99.90
17599;DHT22;8918;52.092;5.232;2023-02-12T00:46:48;7.90;99.90
17599;DHT22;8918;52.092;5.232;2023-02-12T00:49:13;7.90;99.90
17599;DHT22;8918;52.092;5.232;2023-02-12T00:51:40;8.00;99.90
17599;DHT22;8918;52.092;5.232;2023-02-12T00:54:05;7.90;99.90
17599;DHT22;8918;52.092;5.232;2023-02-12T00:56:32;8.00;99.90
17599;DHT22;8918;52.092;5.232;2023-02-12T00:58:58;7.90;99.90
17599;DHT22;8918;52.092;5.232;2023-02-12T01:01:24;7.90;99.90
17599;DHT22;8918;52.092;5.232;2023-02-12T01:03:49;7.90;99.90
17599;DHT22;8918;52.092;5.232;2023-02-12T01:06:15;7.90;99.90
17599;DHT22;8918;52.092;5.232;2023-02-12T01:08:40;7.90;99.90
17599;DHT22;8918;52.092;5.232;2023-02-12T01:11:06;7.90;99.90
17599;DHT22;8918;52.092;5.232;2023-02-12T01:13:33;7.90;99.90
17599;DHT22;8918;52.092;5.232;2023-02-12T01:16:06;7.90;99.90
17599;DHT22;8918;52.092;5.232;2023-02-12T01:18:34;7.90;99.90
17599;DHT22;8918;52.092;5.232;2023-02-12T01:21:00;7.90;99.90
17599;DHT22;8918;52.092;5.232;2023-02-12T01:23:25;7.90;99.90
17599;DHT22;8918;52.092;5.232;2023-02-12T01:25:51;8.00;99.90
17599;DHT22;8918;52.092;5.232;2023-02-12T01:28:17;7.90;99.90
17599;DHT22;8918;52.092;5.232;2023-02-12T01:30:43;7.90;99.90
17599;DHT22;8918;52.092;5.232;2023-02-12T01:33:08;7.90;99.90
17599;DHT22;8918;52.092;5.232;2023-02-12T01:35:36;7.90;99.90
17599;DHT22;8918;52.092;5.232;2023-02-12T01:38:01;7.90;99.90
17599;DHT22;8918;52.092;5.232;2023-02-12T01:40:27;7.80;99.90
17599;DHT22;8918;52.092;5.232;2023-02-12T01:42:53;7.80;99.90
17599;DHT22;8918;52.092;5.232;2023-02-12T01:47:46;7.80;99.90
17599;DHT22;8918;52.092;5.232;2023-02-12T01:50:15;7.80;99.90
17599;DHT22;8918;52.092;5.232;2023-02-12T01:52:44;7.80;99.90
17599;DHT22;8918;52.092;5.232;2023-02-12T01:55:11;7.80;99.90
17599;DHT22;8918;52.092;5.232;2023-02-12T01:57:43;7.80;99.90
17599;DHT22;8918;52.092;5.232;2023-02-12T02:00:21;7.70;99.90
17599;DHT22;8918;52.092;5.232;2023-02-12T02:02:54;7.70;99.90
17599;DHT22;8918;52.092;5.232;2023-02-12T02:07:55;7.70;99.90
17599;DHT22;8918;52.092;5.232;2023-02-12T02:10:20;7.70;99.90
17599;DHT22;8918;52.092;5.232;2023-02-12T02:12:46;7.70;99.90
17599;DHT22;8918;52.092;5.232;2023-02-12T02:15:31;7.70;99.90
17599;DHT22;8918;52.092;5.232;2023-02-12T02:18:11;7.70;99.90
17599;DHT22;8918;52.092;5.232;2023-02-12T02:20:48;7.70;99.90
17599;DHT22;8918;52.092;5.232;2023-02-12T02:24:01;7.70;99.90
17599;DHT22;8918;52.092;5.232;2023-02-12T02:26:52;7.70;99.90
17599;DHT22;8918;52.092;5.232;2023-02-12T02:32:02;7.70;99.90
17599;DHT22;8918;52.092;5.232;2023-02-12T02:37:50;7.70;99.90
17599;DHT22;8918;52.092;5.232;2023-02-12T02:40:09;7.60;99.90
17599;DHT22;8918;52.092;5.232;2023-02-12T02:42:40;7.60;99.90
17599;DHT22;8918;52.092;5.232;2023-02-12T02:45:25;7.60;99.90
17599;DHT22;8918;52.092;5.232;2023-02-12T02:48:00;7.60;99.90
17599;DHT22;8918;52.092;5.232;2023-02-12T02:50:28;7.60;99.90
17599;DHT22;8918;52.092;5.232;2023-02-12T02:53:04;7.60;99.90
17599;DHT22;8918;52.092;5.232;2023-02-12T02:55:36;7.60;99.90
17599;DHT22;8918;52.092;5.232;2023-02-12T02:58:09;7.70;99.90
17599;DHT22;8918;52.092;5.232;2023-02-12T03:01:21;7.60;99.90
17599;DHT22;8918;52.092;5.232;2023-02-12T03:03:43;7.60;99.90
17599;DHT22;8918;52.092;5.232;2023-02-12T03:09:10;7.70;99.90
17599;DHT22;8918;52.092;5.232;2023-02-12T03:11:37;7.70;99.90
17599;DHT22;8918;52.092;5.232;2023-02-12T03:15:02;7.70;99.90
17599;DHT22;8918;52.092;5.232;2023-02-12T03:17:15;7.60;99.90
17599;DHT22;8918;52.092;5.232;2023-02-12T03:19:48;7.60;99.90
17599;DHT22;8918;52.092;5.232;2023-02-12T03:22:19;7.50;99.90
17599;DHT22;8918;52.092;5.232;2023-02-12T03:25:08;7.50;99.90
17599;DHT22;8918;52.092;5.232;2023-02-12T03:27:41;7.50;99.90
17599;DHT22;8918;52.092;5.232;2023-02-12T03:30:09;7.50;99.90
17599;DHT22;8918;52.092;5.232;2023-02-12T03:32:58;7.50;99.90
17599;DHT22;8918;52.092;5.232;2023-02-12T03:35:29;7.50;99.90
17599;DHT22;8918;52.092;5.232;2023-02-12T03:38:20;7.50;99.90
17599;DHT22;8918;52.092;5.232;2023-02-12T03:40:49;7.50;99.90
17599;DHT22;8918;52.092;5.232;2023-02-12T03:51:41;7.60;99.90
17599;DHT22;8918;52.092;5.232;2023-02-12T03:54:09;7.60;99.90
17599;DHT22;8918;52.092;5.232;2023-02-12T03:56:41;7.60;99.90
17599;DHT22;8918;52.092;5.232;2023-02-12T03:59:08;7.60;99.90
17599;DHT22;8918;52.092;5.232;2023-02-12T04:01:34;7.60;99.90
17599;DHT22;8918;52.092;5.232;2023-02-12T04:04:05;7.60;99.90
17599;DHT22;8918;52.092;5.232;2023-02-12T04:06:31;7.60;99.90
17599;DHT22;8918;52.092;5.232;2023-02-12T04:09:05;7.50;99.90
17599;DHT22;8918;52.092;5.232;2023-02-12T04:11:56;7.50;99.90
17599;DHT22;8918;52.092;5.232;2023-02-12T04:17:43;7.50;99.90
17599;DHT22;8918;52.092;5.232;2023-02-12T04:20:26;7.50;99.90
17599;DHT22;8918;52.092;5.232;2023-02-12T04:28:47;7.50;99.90
17599;DHT22;8918;52.092;5.232;2023-02-12T04:31:37;7.50;99.90
17599;DHT22;8918;52.092;5.232;2023-02-12T04:34:17;7.50;99.90
17599;DHT22;8918;52.092;5.232;2023-02-12T04:39:26;7.50;99.90
17599;DHT22;8918;52.092;5.232;2023-02-12T04:41:53;7.50;99.90
17599;DHT22;8918;52.092;5.232;2023-02-12T04:44:24;7.50;99.90
17599;DHT22;8918;52.092;5.232;2023-02-12T04:46:51;7.50;99.90
17599;DHT22;8918;52.092;5.232;2023-02-12T04:49:19;7.60;99.90
17599;DHT22;8918;52.092;5.232;2023-02-12T04:51:45;7.60;99.90
17599;DHT22;8918;52.092;5.232;2023-02-12T04:54:11;7.60;99.90
17599;DHT22;8918;52.092;5.232;2023-02-12T04:56:37;7.60;99.90
17599;DHT22;8918;52.092;5.232;2023-02-12T04:59:05;7.50;99.90
17599;DHT22;8918;52.092;5.232;2023-02-12T05:01:36;7.50;99.90
17599;DHT22;8918;52.092;5.232;2023-02-12T05:04:02;7.50;99.90
17599;DHT22;8918;52.092;5.232;2023-02-12T05:06:28;7.50;99.90
17599;DHT22;8918;52.092;5.232;2023-02-12T05:08:59;7.60;99.90
17599;DHT22;8918;52.092;5.232;2023-02-12T05:11:25;7.50;99.90
17599;DHT22;8918;52.092;5.232;2023-02-12T05:13:51;7.50;99.90
17599;DHT22;8918;52.092;5.232;2023-02-12T05:16:18;7.50;99.90
17599;DHT22;8918;52.092;5.232;2023-02-12T05:18:43;7.50;99.90
17599;DHT22;8918;52.092;5.232;2023-02-12T05:21:09;7.50;99.90
17599;DHT22;8918;52.092;5.232;2023-02-12T05:23:36;7.50;99.90
17599;DHT22;8918;52.092;5.232;2023-02-12T05:26:05;7.50;99.90
17599;DHT22;8918;52.092;5.232;2023-02-12T05:28:31;7.60;99.90
17599;DHT22;8918;52.092;5.232;2023-02-12T05:31:05;7.50;99.90
17599;DHT22;8918;52.092;5.232;2023-02-12T05:33:32;7.60;99.90
17599;DHT22;8918;52.092;5.232;2023-02-12T05:36:08;7.60;99.90
17599;DHT22;8918;52.092;5.232;2023-02-12T05:38:35;7.60;99.90
17599;DHT22;8918;52.092;5.232;2023-02-12T05:41:05;7.60;99.90
17599;DHT22;8918;52.092;5.232;2023-02-12T05:43:30;7.60;99.90
17599;DHT22;8918;52.092;5.232;2023-02-12T05:46:04;7.60;99.90
17599;DHT22;8918;52.092;5.232;2023-02-12T05:48:30;7.60;99.90
17599;DHT22;8918;52.092;5.232;2023-02-12T05:51:13;7.50;99.90
17599;DHT22;8918;52.092;5.232;2023-02-12T05:53:40;7.60;99.90
17599;DHT22;8918;52.092;5.232;2023-02-12T05:56:45;7.60;99.90
17599;DHT22;8918;52.092;5.232;2023-02-12T05:59:18;7.50;99.90
17599;DHT22;8918;52.092;5.232;2023-02-12T06:01:45;7.50;99.90
17599;DHT22;8918;52.092;5.232;2023-02-12T06:04:24;7.50;99.90
17599;DHT22;8918;52.092;5.232;2023-02-12T06:06:51;7.50;99.90
17599;DHT22;8918;52.092;5.232;2023-02-12T06:09:16;7.50;99.90
17599;DHT22;8918;52.092;5.232;2023-02-12T06:11:42;7.50;99.90
17599;DHT22;8918;52.092;5.232;2023-02-12T06:14:11;7.50;99.90
17599;DHT22;8918;52.092;5.232;2023-02-12T06:16:38;7.50;99.90
17599;DHT22;8918;52.092;5.232;2023-02-12T06:19:04;7.60;99.90
17599;DHT22;8918;52.092;5.232;2023-02-12T06:21:31;7.50;99.90
17599;DHT22;8918;52.092;5.232;2023-02-12T06:23:57;7.50;99.90
17599;DHT22;8918;52.092;5.232;2023-02-12T06:26:24;7.50;99.90
17599;DHT22;8918;52.092;5.232;2023-02-12T06:28:49;7.50;99.90
17599;DHT22;8918;52.092;5.232;2023-02-12T06:31:22;7.50;99.90
17599;DHT22;8918;52.092;5.232;2023-02-12T06:33:49;7.50;99.90
17599;DHT22;8918;52.092;5.232;2023-02-12T06:36:15;7.60;99.90
17599;DHT22;8918;52.092;5.232;2023-02-12T06:38:41;7.60;99.90
17599;DHT22;8918;52.092;5.232;2023-02-12T06:41:07;7.60;99.90
17599;DHT22;8918;52.092;5.232;2023-02-12T06:43:32;7.60;99.90
17599;DHT22;8918;52.092;5.232;2023-02-12T06:46:02;7.60;99.90
17599;DHT22;8918;52.092;5.232;2023-02-12T06:48:28;7.60;99.90
17599;DHT22;8918;52.092;5.232;2023-02-12T06:50:54;7.50;99.90
17599;DHT22;8918;52.092;5.232;2023-02-12T06:53:20;7.50;99.90
17599;DHT22;8918;52.092;5.232;2023-02-12T06:55:45;7.50;99.90
17599;DHT22;8918;52.092;5.232;2023-02-12T06:58:11;7.60;99.90
17599;DHT22;8918;52.092;5.232;2023-02-12T07:00:37;7.50;99.90
17599;DHT22;8918;52.092;5.232;2023-02-12T07:03:02;7.40;99.90
17599;DHT22;8918;52.092;5.232;2023-02-12T07:05:28;7.40;99.90
17599;DHT22;8918;52.092;5.232;2023-02-12T07:07:53;7.40;99.90
17599;DHT22;8918;52.092;5.232;2023-02-12T07:10:19;7.50;99.90
17599;DHT22;8918;52.092;5.232;2023-02-12T07:12:45;7.60;99.90
17599;DHT22;8918;52.092;5.232;2023-02-12T07:15:12;7.70;99.90
17599;DHT22;8918;52.092;5.232;2023-02-12T07:17:38;7.60;99.90
17599;DHT22;8918;52.092;5.232;2023-02-12T07:20:04;7.50;99.90
17599;DHT22;8918;52.092;5.232;2023-02-12T07:22:30;7.50;99.90
17599;DHT22;8918;52.092;5.232;2023-02-12T07:24:55;7.60;99.90
17599;DHT22;8918;52.092;5.232;2023-02-12T07:27:21;7.60;99.90
17599;DHT22;8918;52.092;5.232;2023-02-12T07:29:47;7.60;99.90
17599;DHT22;8918;52.092;5.232;2023-02-12T07:32:12;7.50;99.90
17599;DHT22;8918;52.092;5.232;2023-02-12T07:34:38;7.50;99.90
17599;DHT22;8918;52.092;5.232;2023-02-12T07:37:03;7.40;99.90
17599;DHT22;8918;52.092;5.232;2023-02-12T07:39:30;7.40;99.90
17599;DHT22;8918;52.092;5.232;2023-02-12T07:41:55;7.40;99.90
17599;DHT22;8918;52.092;5.232;2023-02-12T07:44:22;7.40;99.90
17599;DHT22;8918;52.092;5.232;2023-02-12T07:46:48;7.40;99.90
17599;DHT22;8918;52.092;5.232;2023-02-12T07:49:16;7.50;99.90
17599;DHT22;8918;52.092;5.232;2023-02-12T07:51:42;7.40;99.90
17599;DHT22;8918;52.092;5.232;2023-02-12T07:54:09;7.40;99.90
17599;DHT22;8918;52.092;5.232;2023-02-12T07:56:36;7.50;99.90
17599;DHT22;8918;52.092;5.232;2023-02-12T07:59:06;7.50;99.90
17599;DHT22;8918;52.092;5.232;2023-02-12T08:01:33;7.50;99.90
17599;DHT22;8918;52.092;5.232;2023-02-12T08:04:10;7.60;99.90
17599;DHT22;8918;52.092;5.232;2023-02-12T08:06:39;7.50;99.90
17599;DHT22;8918;52.092;5.232;2023-02-12T08:09:07;7.60;99.90
17599;DHT22;8918;52.092;5.232;2023-02-12T08:11:34;7.60;99.90
17599;DHT22;8918;52.092;5.232;2023-02-12T08:14:01;7.50;99.90
17599;DHT22;8918;52.092;5.232;2023-02-12T08:16:28;7.50;99.90
17599;DHT22;8918;52.092;5.232;2023-02-12T08:18:55;7.60;99.90
17599;DHT22;8918;52.092;5.232;2023-02-12T08:21:25;7.60;99.90
17599;DHT22;8918;52.092;5.232;2023-02-12T08:23:55;7.70;99.90
17599;DHT22;8918;52.092;5.232;2023-02-12T08:26:23;7.80;99.90
17599;DHT22;8918;52.092;5.232;2023-02-12T08:28:58;7.80;99.90
17599;DHT22;8918;52.092;5.232;2023-02-12T08:31:26;7.80;99.90
17599;DHT22;8918;52.092;5.232;2023-02-12T08:33:53;7.70;99.90
17599;DHT22;8918;52.092;5.232;2023-02-12T08:36:22;7.80;99.90
17599;DHT22;8918;52.092;5.232;2023-02-12T08:38:48;7.90;99.90
17599;DHT22;8918;52.092;5.232;2023-02-12T08:41:25;7.80;99.90
17599;DHT22;8918;52.092;5.232;2023-02-12T08:43:53;7.90;99.90
17599;DHT22;8918;52.092;5.232;2023-02-12T08:46:24;7.90;99.90
17599;DHT22;8918;52.092;5.232;2023-02-12T08:48:55;7.80;99.90
17599;DHT22;8918;52.092;5.232;2023-02-12T08:51:27;7.80;99.90
17599;DHT22;8918;52.092;5.232;2023-02-12T08:53:55;7.70;99.90
17599;DHT22;8918;52.092;5.232;2023-02-12T08:56:22;7.70;99.90
17599;DHT22;8918;52.092;5.232;2023-02-12T08:58:48;7.70;99.90
17599;DHT22;8918;52.092;5.232;2023-02-12T09:01:17;7.70;99.90
17599;DHT22;8918;52.092;5.232;2023-02-12T09:03:43;7.70;99.90
17599;DHT22;8918;52.092;5.232;2023-02-12T09:06:09;7.70;99.90
17599;DHT22;8918;52.092;5.232;2023-02-12T09:08:36;7.80;99.90
17599;DHT22;8918;52.092;5.232;2023-02-12T09:11:08;7.80;99.90
17599;DHT22;8918;52.092;5.232;2023-02-12T09:13:35;7.90;99.90
17599;DHT22;8918;52.092;5.232;2023-02-12T09:16:02;7.90;99.90
17599;DHT22;8918;52.092;5.232;2023-02-12T09:18:29;8.00;99.90
17599;DHT22;8918;52.092;5.232;2023-02-12T09:20:54;8.10;99.90
17599;DHT22;8918;52.092;5.232;2023-02-12T09:23:24;8.00;99.90
17599;DHT22;8918;52.092;5.232;2023-02-12T09:25:50;8.00;99.90
17599;DHT22;8918;52.092;5.232;2023-02-12T09:28:15;8.10;99.90
17599;DHT22;8918;52.092;5.232;2023-02-12T09:30:41;8.10;99.90
17599;DHT22;8918;52.092;5.232;2023-02-12T09:33:08;8.10;99.90
17599;DHT22;8918;52.092;5.232;2023-02-12T09:35:35;8.10;99.90
17599;DHT22;8918;52.092;5.232;2023-02-12T09:38:04;8.10;99.90
17599;DHT22;8918;52.092;5.232;2023-02-12T09:45:57;8.20;99.90
17599;DHT22;8918;52.092;5.232;2023-02-12T09:48:46;8.20;99.90
17599;DHT22;8918;52.092;5.232;2023-02-12T09:51:13;8.30;99.90
17599;DHT22;8918;52.092;5.232;2023-02-12T09:53:42;8.30;99.90
17599;DHT22;8918;52.092;5.232;2023-02-12T09:56:15;8.40;99.90
17599;DHT22;8918;52.092;5.232;2023-02-12T09:58:58;8.50;99.90
17599;DHT22;8918;52.092;5.232;2023-02-12T10:01:28;8.40;99.90
17599;DHT22;8918;52.092;5.232;2023-02-12T10:03:54;8.40;99.90
17599;DHT22;8918;52.092;5.232;2023-02-12T10:06:24;8.40;99.90
17599;DHT22;8918;52.092;5.232;2023-02-12T10:25:56;8.60;99.90
17599;DHT22;8918;52.092;5.232;2023-02-12T10:28:26;8.60;99.90
17599;DHT22;8918;52.092;5.232;2023-02-12T10:31:20;8.60;99.90
17599;DHT22;8918;52.092;5.232;2023-02-12T10:33:49;8.60;99.90
17599;DHT22;8918;52.092;5.232;2023-02-12T10:36:17;8.60;99.90
17599;DHT22;8918;52.092;5.232;2023-02-12T10:38:51;8.60;99.90
17599;DHT22;8918;52.092;5.232;2023-02-12T10:41:21;8.70;99.90
17599;DHT22;8918;52.092;5.232;2023-02-12T10:43:47;8.70;99.90
17599;DHT22;8918;52.092;5.232;2023-02-12T10:46:16;8.70;99.90
17599;DHT22;8918;52.092;5.232;2023-02-12T10:48:47;8.70;99.90
17599;DHT22;8918;52.092;5.232;2023-02-12T10:54:33;8.70;99.90
17599;DHT22;8918;52.092;5.232;2023-02-12T10:57:10;8.80;99.90
17599;DHT22;8918;52.092;5.232;2023-02-12T10:59:37;8.70;99.90
17599;DHT22;8918;52.092;5.232;2023-02-12T11:02:15;8.70;99.90
17599;DHT22;8918;52.092;5.232;2023-02-12T11:04:42;8.60;99.90
17599;DHT22;8918;52.092;5.232;2023-02-12T11:07:08;8.70;99.90
17599;DHT22;8918;52.092;5.232;2023-02-12T11:09:42;8.60;99.90
17599;DHT22;8918;52.092;5.232;2023-02-12T11:14:53;8.90;99.90
17599;DHT22;8918;52.092;5.232;2023-02-12T11:20:05;8.90;99.90
17599;DHT22;8918;52.092;5.232;2023-02-12T11:22:33;8.90;99.90
17599;DHT22;8918;52.092;5.232;2023-02-12T11:25:01;8.90;99.90
17599;DHT22;8918;52.092;5.232;2023-02-12T11:27:32;8.80;99.90
17599;DHT22;8918;52.092;5.232;2023-02-12T11:32:37;8.80;99.90
17599;DHT22;8918;52.092;5.232;2023-02-12T11:35:14;8.90;99.90
17599;DHT22;8918;52.092;5.232;2023-02-12T11:37:44;9.00;99.90
17599;DHT22;8918;52.092;5.232;2023-02-12T11:40:20;9.00;99.90
17599;DHT22;8918;52.092;5.232;2023-02-12T11:42:52;8.90;99.90
17599;DHT22;8918;52.092;5.232;2023-02-12T11:45:20;8.90;99.90
17599;DHT22;8918;52.092;5.232;2023-02-12T11:47:47;9.00;99.90
17599;DHT22;8918;52.092;5.232;2023-02-12T11:52:48;9.00;99.90
17599;DHT22;8918;52.092;5.232;2023-02-12T11:55:24;9.00;99.90
17599;DHT22;8918;52.092;5.232;2023-02-12T11:57:52;9.00;99.90
17599;DHT22;8918;52.092;5.232;2023-02-12T12:03:00;9.10;99.90
17599;DHT22;8918;52.092;5.232;2023-02-12T12:05:34;9.10;99.90
17599;DHT22;8918;52.092;5.232;2023-02-12T12:08:11;9.10;99.90
17599;DHT22;8918;52.092;5.232;2023-02-12T12:10:45;9.10;99.90
17599;DHT22;8918;52.092;5.232;2023-02-12T12:13:22;9.20;99.90
17599;DHT22;8918;52.092;5.232;2023-02-12T12:16:03;9.10;99.90
17599;DHT22;8918;52.092;5.232;2023-02-12T12:18:58;9.10;99.90
17599;DHT22;8918;52.092;5.232;2023-02-12T12:21:53;9.10;99.90
17599;DHT22;8918;52.092;5.232;2023-02-12T12:24:33;9.10;99.90
17599;DHT22;8918;52.092;5.232;2023-02-12T12:27:03;9.10;99.90
17599;DHT22;8918;52.092;5.232;2023-02-12T12:30:00;9.20;99.90
17599;DHT22;8918;52.092;5.232;2023-02-12T12:32:33;9.20;99.90
17599;DHT22;8918;52.092;5.232;2023-02-12T12:35:00;9.20;99.90
17599;DHT22;8918;52.092;5.232;2023-02-12T12:37:34;9.20;99.90
17599;DHT22;8918;52.092;5.232;2023-02-12T12:45:58;9.30;99.90
17599;DHT22;8918;52.092;5.232;2023-02-12T13:04:47;9.30;99.90
17599;DHT22;8918;52.092;5.232;2023-02-12T13:16:08;9.30;99.90
17599;DHT22;8918;52.092;5.232;2023-02-12T13:18:55;9.30;99.90
17599;DHT22;8918;52.092;5.232;2023-02-12T13:26:47;9.20;99.90
17599;DHT22;8918;52.092;5.232;2023-02-12T13:29:20;9.30;99.90
17599;DHT22;8918;52.092;5.232;2023-02-12T13:32:36;9.30;99.90
17599;DHT22;8918;52.092;5.232;2023-02-12T13:34:42;9.30;99.90
17599;DHT22;8918;52.092;5.232;2023-02-12T13:37:17;9.20;99.90
17599;DHT22;8918;52.092;5.232;2023-02-12T13:39:46;9.20;99.90
17599;DHT22;8918;52.092;5.232;2023-02-12T13:42:18;9.20;99.90
17599;DHT22;8918;52.092;5.232;2023-02-12T13:44:49;9.20;99.90
17599;DHT22;8918;52.092;5.232;2023-02-12T13:47:29;9.20;99.90
17599;DHT22;8918;52.092;5.232;2023-02-12T13:53:00;9.10;99.90
17599;DHT22;8918;52.092;5.232;2023-02-12T13:55:38;9.20;99.90
17599;DHT22;8918;52.092;5.232;2023-02-12T14:01:05;9.30;99.90
17599;DHT22;8918;52.092;5.232;2023-02-12T14:03:35;9.30;99.90
17599;DHT22;8918;52.092;5.232;2023-02-12T14:06:14;9.30;99.90
17599;DHT22;8918;52.092;5.232;2023-02-12T14:09:06;9.30;99.90
17599;DHT22;8918;52.092;5.232;2023-02-12T14:11:32;9.20;99.90
17599;DHT22;8918;52.092;5.232;2023-02-12T14:14:02;9.20;99.90
17599;DHT22;8918;52.092;5.232;2023-02-12T14:22:09;9.20;99.90
17599;DHT22;8918;52.092;5.232;2023-02-12T14:27:03;9.20;99.90
17599;DHT22;8918;52.092;5.232;2023-02-12T14:29:30;9.20;99.90
17599;DHT22;8918;52.092;5.232;2023-02-12T14:31:55;9.20;99.90
17599;DHT22;8918;52.092;5.232;2023-02-12T14:36:47;9.20;99.90
17599;DHT22;8918;52.092;5.232;2023-02-12T14:41:49;9.20;99.90
17599;DHT22;8918;52.092;5.232;2023-02-12T14:46:50;9.20;99.90
17599;DHT22;8918;52.092;5.232;2023-02-12T14:49:38;9.20;99.90
17599;DHT22;8918;52.092;5.232;2023-02-12T14:52:15;9.20;99.90
17599;DHT22;8918;52.092;5.232;2023-02-12T14:54:47;9.20;99.90
17599;DHT22;8918;52.092;5.232;2023-02-12T14:57:28;9.10;99.90
17599;DHT22;8918;52.092;5.232;2023-02-12T15:02:32;9.10;99.90
17599;DHT22;8918;52.092;5.232;2023-02-12T15:05:03;9.00;99.90
17599;DHT22;8918;52.092;5.232;2023-02-12T15:07:34;9.00;99.90
17599;DHT22;8918;52.092;5.232;2023-02-12T15:10:12;9.00;99.90
17599;DHT22;8918;52.092;5.232;2023-02-12T15:15:20;9.10;99.90
17599;DHT22;8918;52.092;5.232;2023-02-12T15:17:57;9.10;99.90
17599;DHT22;8918;52.092;5.232;2023-02-12T15:20:37;9.10;99.90
17599;DHT22;8918;52.092;5.232;2023-02-12T15:23:46;9.00;99.90
17599;DHT22;8918;52.092;5.232;2023-02-12T15:26:14;9.00;99.90
17599;DHT22;8918;52.092;5.232;2023-02-12T15:28:41;9.00;99.90
17599;DHT22;8918;52.092;5.232;2023-02-12T15:31:08;9.00;99.90
17599;DHT22;8918;52.092;5.232;2023-02-12T15:33:39;8.90;99.90
17599;DHT22;8918;52.092;5.232;2023-02-12T15:36:07;8.90;99.90
17599;DHT22;8918;52.092;5.232;2023-02-12T15:38:36;8.90;99.90
17599;DHT22;8918;52.092;5.232;2023-02-12T15:41:03;8.90;99.90
17599;DHT22;8918;52.092;5.232;2023-02-12T15:43:31;8.80;99.90
17599;DHT22;8918;52.092;5.232;2023-02-12T15:46:01;8.90;99.90
17599;DHT22;8918;52.092;5.232;2023-02-12T15:48:32;8.90;99.90
17599;DHT22;8918;52.092;5.232;2023-02-12T15:51:26;8.90;99.90
17599;DHT22;8918;52.092;5.232;2023-02-12T15:53:52;8.90;99.90
17599;DHT22;8918;52.092;5.232;2023-02-12T15:56:21;8.80;99.90
17599;DHT22;8918;52.092;5.232;2023-02-12T16:01:25;8.70;99.90
17599;DHT22;8918;52.092;5.232;2023-02-12T16:03:52;8.70;99.90
17599;DHT22;8918;52.092;5.232;2023-02-12T16:06:20;8.70;99.90
17599;DHT22;8918;52.092;5.232;2023-02-12T16:09:12;8.70;99.90
17599;DHT22;8918;52.092;5.232;2023-02-12T16:11:35;8.60;99.90
17599;DHT22;8918;52.092;5.232;2023-02-12T16:14:04;8.60;99.90
17599;DHT22;8918;52.092;5.232;2023-02-12T16:16:46;8.50;99.90
17599;DHT22;8918;52.092;5.232;2023-02-12T16:19:27;8.50;99.90
17599;DHT22;8918;52.092;5.232;2023-02-12T16:22:06;8.50;99.90
17599;DHT22;8918;52.092;5.232;2023-02-12T16:24:38;8.40;99.90
17599;DHT22;8918;52.092;5.232;2023-02-12T16:29:52;8.40;99.90
17599;DHT22;8918;52.092;5.232;2023-02-12T16:38:36;8.40;99.90
17599;DHT22;8918;52.092;5.232;2023-02-12T16:40:38;8.40;99.90
17599;DHT22;8918;52.092;5.232;2023-02-12T16:43:24;8.40;99.90
17599;DHT22;8918;52.092;5.232;2023-02-12T16:45:52;8.30;99.90
17599;DHT22;8918;52.092;5.232;2023-02-12T16:48:25;8.30;99.90
17599;DHT22;8918;52.092;5.232;2023-02-12T16:50:56;8.30;99.90
17599;DHT22;8918;52.092;5.232;2023-02-12T16:53:30;8.30;99.90
17599;DHT22;8918;52.092;5.232;2023-02-12T16:56:00;8.30;99.90
17599;DHT22;8918;52.092;5.232;2023-02-12T16:58:26;8.30;99.90
17599;DHT22;8918;52.092;5.232;2023-02-12T17:00:54;8.30;99.90
17599;DHT22;8918;52.092;5.232;2023-02-12T17:03:20;8.30;99.90
17599;DHT22;8918;52.092;5.232;2023-02-12T17:05:45;8.30;99.90
17599;DHT22;8918;52.092;5.232;2023-02-12T17:08:16;8.30;99.90
17599;DHT22;8918;52.092;5.232;2023-02-12T17:10:42;8.40;99.90
17599;DHT22;8918;52.092;5.232;2023-02-12T17:13:13;8.30;99.90
17599;DHT22;8918;52.092;5.232;2023-02-12T17:15:55;8.30;99.90
17599;DHT22;8918;52.092;5.232;2023-02-12T17:18:21;8.30;99.90
17599;DHT22;8918;52.092;5.232;2023-02-12T17:20:53;8.30;99.90
17599;DHT22;8918;52.092;5.232;2023-02-12T17:23:19;8.30;99.90
17599;DHT22;8918;52.092;5.232;2023-02-12T17:25:45;8.30;99.90
17599;DHT22;8918;52.092;5.232;2023-02-12T17:28:11;8.30;99.90
17599;DHT22;8918;52.092;5.232;2023-02-12T17:30:37;8.20;99.90
17599;DHT22;8918;52.092;5.232;2023-02-12T17:33:03;8.20;99.90
17599;DHT22;8918;52.092;5.232;2023-02-12T17:35:29;8.20;99.90
17599;DHT22;8918;52.092;5.232;2023-02-12T17:37:54;8.20;99.90
17599;DHT22;8918;52.092;5.232;2023-02-12T17:40:20;8.20;99.90
17599;DHT22;8918;52.092;5.232;2023-02-12T17:42:46;8.20;99.90
17599;DHT22;8918;52.092;5.232;2023-02-12T17:45:12;8.30;99.90
17599;DHT22;8918;52.092;5.232;2023-02-12T17:47:37;8.30;99.90
17599;DHT22;8918;52.092;5.232;2023-02-12T17:50:10;8.20;99.90
17599;DHT22;8918;52.092;5.232;2023-02-12T17:52:36;8.20;99.90
17599;DHT22;8918;52.092;5.232;2023-02-12T17:55:02;8.20;99.90
17599;DHT22;8918;52.092;5.232;2023-02-12T17:57:28;8.20;99.90
17599;DHT22;8918;52.092;5.232;2023-02-12T17:59:53;8.10;99.90
17599;DHT22;8918;52.092;5.232;2023-02-12T18:02:19;8.10;99.90
17599;DHT22;8918;52.092;5.232;2023-02-12T18:04:44;8.10;99.90
17599;DHT22;8918;52.092;5.232;2023-02-12T18:07:10;8.10;99.90
17599;DHT22;8918;52.092;5.232;2023-02-12T18:09:36;8.10;99.90
17599;DHT22;8918;52.092;5.232;2023-02-12T18:12:02;8.10;99.90
17599;DHT22;8918;52.092;5.232;2023-02-12T18:14:28;8.10;99.90
17599;DHT22;8918;52.092;5.232;2023-02-12T18:16:53;8.10;99.90
17599;DHT22;8918;52.092;5.232;2023-02-12T18:19:19;8.10;99.90
17599;DHT22;8918;52.092;5.232;2023-02-12T18:21:44;8.10;99.90
17599;DHT22;8918;52.092;5.232;2023-02-12T18:24:10;8.10;99.90
17599;DHT22;8918;52.092;5.232;2023-02-12T18:26:35;8.20;99.90
17599;DHT22;8918;52.092;5.232;2023-02-12T18:29:01;8.10;99.90
17599;DHT22;8918;52.092;5.232;2023-02-12T18:31:27;8.10;99.90
17599;DHT22;8918;52.092;5.232;2023-02-12T18:33:52;8.20;99.90
17599;DHT22;8918;52.092;5.232;2023-02-12T18:36:20;8.20;99.90
17599;DHT22;8918;52.092;5.232;2023-02-12T18:38:47;8.20;99.90
17599;DHT22;8918;52.092;5.232;2023-02-12T18:41:19;8.20;99.90
17599;DHT22;8918;52.092;5.232;2023-02-12T18:43:45;8.20;99.90
17599;DHT22;8918;52.092;5.232;2023-02-12T18:46:13;8.10;99.90
17599;DHT22;8918;52.092;5.232;2023-02-12T18:48:39;8.20;99.90